Georg Jacob — A8XG5 — position and weather

sailwx.info

Track history (hours):
 
Tides and Currents Weather Stations Pressure Air Temp Water Temp Dewpoint Dewpoint Depression Visibility Wind Speed Wind Dir Waves Ship Positions

Georg Jacob

Last reported at 2014-Jul-23 10:17 UTC. Time now 2014-Jul-23 11:31 UTC.
Position N 57°27' E 020°57'.

Length 229 m; draft 8.1 m.

Type: Tanker. MMSI: 636092136.

Date/timePositionNaut miles runAvg speedWind from/ knotsBaromVisibWave heightAir tempDewpointWater temp
2014-Jul-23 10:17N 57°27' E 020°57'2211.1
2014-Jul-23 08:16N 57°30' E 020°16'811.5
2014-Jul-23 07:32N 57°24' E 020°04'1111.7
2014-Jul-23 06:33N 57°16' E 019°50'1211.8
2014-Jul-23 05:33N 57°06' E 019°37'1211.9
2014-Jul-23 04:34N 56°56' E 019°26'1212.1
2014-Jul-23 03:33N 56°45' E 019°16'1212.2
2014-Jul-23 02:33N 56°34' E 019°06'1212.1
2014-Jul-23 01:33N 56°24' E 018°55'1111.5
2014-Jul-23 00:34N 56°15' E 018°42'1211.7
2014-Jul-22 23:33N 56°09' E 018°24'1211.7
2014-Jul-22 22:33N 56°03' E 018°06'1211.9
2014-Jul-22 21:34N 55°57' E 017°48'1211.7
2014-Jul-22 20:34N 55°53' E 017°28'1211.8
2014-Jul-22 19:34N 55°50' E 017°08'1211.9
2014-Jul-22 18:33N 55°47' E 016°47'1211.8
2014-Jul-22 17:33N 55°45' E 016°27'1211.7
2014-Jul-22 16:33N 55°42' E 016°06'1211.6
2014-Jul-22 15:33N 55°39' E 015°46'1110.8
2014-Jul-22 14:34N 55°36' E 015°28'1111.1
2014-Jul-22 13:34N 55°32' E 015°10'1111.1
2014-Jul-22 12:33N 55°27' E 014°52'1110.8
2014-Jul-22 11:33N 55°21' E 014°36'1111.5
2014-Jul-22 10:33N 55°12' E 014°24'1211.7
2014-Jul-22 09:33N 55°03' E 014°11'1111.1
2014-Jul-22 08:33N 54°58' E 013°54'1211.9
2014-Jul-22 07:33N 54°55' E 013°34'1313.3
2014-Jul-22 06:34N 54°50' E 013°12'1212.0
2014-Jul-22 05:33N 54°47' E 012°53'1211.7
2014-Jul-22 04:33N 54°42' E 012°34'1110.8
2014-Jul-22 03:34N 54°35' E 012°19'9 8.9
2014-Jul-22 02:33N 54°27' E 012°12'1111.1
2014-Jul-22 01:33N 54°25' E 011°54'1212.1
2014-Jul-22 00:34N 54°28' E 011°34'1212.0
2014-Jul-21 23:33N 54°34' E 011°15'1211.7
2014-Jul-21 22:33N 54°40' E 010°58'9 8.8
2014-Jul-21 21:33N 54°48' E 010°51'1111.0
2014-Jul-21 20:33N 54°58' E 010°58'312.2
2014-Jul-21 20:18N 55°01' E 011°01'1211.3
2014-Jul-21 19:15N 55°12' E 011°05'5610.9
2014-Jul-21 14:05N 56°08' E 011°04'712.3
2014-Jul-21 13:33N 56°15' E 011°05'11 9.9
2014-Jul-21 12:26N 56°26' E 011°09'7 8.5
2014-Jul-21 11:33N 56°30' E 011°19'1010.1
2014-Jul-21 10:33N 56°37' E 011°33'1010.5
2014-Jul-21 09:33N 56°43' E 011°48'1210.9
2014-Jul-21 08:29N 56°55' E 011°45'1112.0
2014-Jul-21 07:33N 57°05' E 011°37'1212.1
2014-Jul-21 06:33N 57°17' E 011°29'1211.6
2014-Jul-21 05:33N 57°28' E 011°22'1211.6
2014-Jul-21 04:33N 57°36' E 011°06'1111.0
2014-Jul-21 03:33N 57°43' E 010°52'10 9.8
2014-Jul-21 02:33N 57°49' E 010°36'1211.6
2014-Jul-21 01:33N 57°47' E 010°15'1111.2
2014-Jul-21 00:33N 57°46' E 009°54'1111.2
2014-Jul-20 23:33N 57°45' E 009°33'17011.8
2014-Jul-20 09:05N 55°31' E 006°20'712.5
2014-Jul-20 08:33N 55°26' E 006°14'1212.1
2014-Jul-20 07:33N 55°15' E 006°03'1212.0
2014-Jul-20 06:33N 55°05' E 005°53'1212.0
2014-Jul-20 05:33N 54°55' E 005°42'3112.4
2014-Jul-20 03:03N 54°28' E 005°14'712.8
2014-Jul-20 02:32N 54°22' E 005°08'1312.9
2014-Jul-20 01:32N 54°11' E 004°57'1312.9
2014-Jul-20 00:33N 54°01' E 004°46'1312.8
2014-Jul-19 23:33N 53°51' E 004°31'1412.6
2014-Jul-19 22:26N 53°42' E 004°13'5912.1
2014-Jul-19 17:33N 52°53' E 003°19'2411.9
2014-Jul-19 15:32N 52°29' E 003°12'1211.6
2014-Jul-19 14:32N 52°17' E 003°12'1010.6
2014-Jul-19 13:33N 52°07' E 003°06'2210.9
2014-Jul-19 11:32N 51°51' E 002°43'1211.9
2014-Jul-19 10:33N 51°42' E 002°30'1212.4
2014-Jul-19 09:33N 51°32' E 002°18'1313.0
2014-Jul-19 08:33N 51°21' E 002°09'1313.0
2014-Jul-19 07:33N 51°11' E 001°55'1414.1
2014-Jul-19 06:33N 51°02' E 001°38'1514.8
2014-Jul-19 05:33N 50°49' E 001°25'1413.8
2014-Jul-19 04:34N 50°38' E 001°14'1414.0
2014-Jul-19 03:33N 50°29' E 000°56'1414.2
2014-Jul-19 02:34N 50°25' E 000°35'1514.7
2014-Jul-19 01:33N 50°22' E 000°12'1914.3
2014-Jul-19 00:14N 50°17' W 000°16'1014.4
2014-Jul-18 23:33N 50°14' W 000°31'1413.9
2014-Jul-18 22:34N 50°10' W 000°52'1312.6
2014-Jul-18 21:30N 50°07' W 001°12'1011.1
2014-Jul-18 20:34N 50°04' W 001°28'10 9.9
2014-Jul-18 19:32N 50°01' W 001°43'9 9.1
2014-Jul-18 18:32N 49°59' W 001°57'9 8.4
2014-Jul-18 17:31N 49°57' W 002°10'3611.4
2014-Jul-18 14:23N 49°45' W 003°02'9513.5
2014-Jul-18 07:22N 48°58' W 005°08'6312.6
2014-Jul-18 02:25N 48°09' W 006°07'46912.4
2014-Jul-16 12:33N 40°58' W 010°26'3912.2
2014-Jul-16 09:19N 40°20' W 010°40'911.9
2014-Jul-16 08:33N 40°11' W 010°43'1211.9
2014-Jul-16 07:33N 40°00' W 010°48'1312.6
2014-Jul-16 06:33N 39°48' W 010°52'1313.1
2014-Jul-16 05:33N 39°35' W 010°57'1313.2
2014-Jul-16 04:33N 39°23' W 011°02'2813.3
2014-Jul-16 02:26N 38°55' W 011°12'2513.2
2014-Jul-16 00:30N 38°31' W 011°20'1612.8
2014-Jul-15 23:15N 38°16' W 011°26'913.0
2014-Jul-15 22:33N 38°07' W 011°29'1312.9
2014-Jul-15 21:33N 37°54' W 011°34'1312.7
2014-Jul-15 20:33N 37°42' W 011°38'1312.7
2014-Jul-15 19:33N 37°30' W 011°42'1413.0
2014-Jul-15 18:30N 37°17' W 011°47'1313.1
2014-Jul-15 17:33N 37°05' W 011°52'1312.8
2014-Jul-15 16:33N 36°53' W 011°56'2512.2
2014-Jul-15 14:31N 36°29' W 012°04'23011.3
2014-Jul-14 18:13N 32°48' W 013°21'710.4
2014-Jul-14 17:33N 32°41' W 013°23'15110.7
2014-Jul-14 03:23N 30°16' W 014°12'  
Track history (hours):
 
Tides and Currents Weather Stations Pressure Air Temp Water Temp Dewpoint Dewpoint Depression Visibility Wind Speed Wind Dir Waves Ship Positions

Georg Jacob

Last reported at 2014-Jul-23 10:17 UTC. Time now 2014-Jul-23 11:31 UTC.
Position N 57°27' E 020°57'.

Length 229 m; draft 8.1 m.

Type: Tanker. MMSI: 636092136.

Date/timePositionNaut miles runAvg speedWind from/ knotsBaromVisibWave heightAir tempDewpointWater temp
2014-Jul-23 10:17N 57°27' E 020°57'2211.1
2014-Jul-23 08:16N 57°30' E 020°16'811.5
2014-Jul-23 07:32N 57°24' E 020°04'1111.7
2014-Jul-23 06:33N 57°16' E 019°50'1211.8
2014-Jul-23 05:33N 57°06' E 019°37'1211.9
2014-Jul-23 04:34N 56°56' E 019°26'1212.1
2014-Jul-23 03:33N 56°45' E 019°16'1212.2
2014-Jul-23 02:33N 56°34' E 019°06'1212.1
2014-Jul-23 01:33N 56°24' E 018°55'1111.5
2014-Jul-23 00:34N 56°15' E 018°42'1211.7
2014-Jul-22 23:33N 56°09' E 018°24'1211.7
2014-Jul-22 22:33N 56°03' E 018°06'1211.9
2014-Jul-22 21:34N 55°57' E 017°48'1211.7
2014-Jul-22 20:34N 55°53' E 017°28'1211.8
2014-Jul-22 19:34N 55°50' E 017°08'1211.9
2014-Jul-22 18:33N 55°47' E 016°47'1211.8
2014-Jul-22 17:33N 55°45' E 016°27'1211.7
2014-Jul-22 16:33N 55°42' E 016°06'1211.6
2014-Jul-22 15:33N 55°39' E 015°46'1110.8
2014-Jul-22 14:34N 55°36' E 015°28'1111.1
2014-Jul-22 13:34N 55°32' E 015°10'1111.1
2014-Jul-22 12:33N 55°27' E 014°52'1110.8
2014-Jul-22 11:33N 55°21' E 014°36'1111.5
2014-Jul-22 10:33N 55°12' E 014°24'1211.7
2014-Jul-22 09:33N 55°03' E 014°11'1111.1
2014-Jul-22 08:33N 54°58' E 013°54'1211.9
2014-Jul-22 07:33N 54°55' E 013°34'1313.3
2014-Jul-22 06:34N 54°50' E 013°12'1212.0
2014-Jul-22 05:33N 54°47' E 012°53'1211.7
2014-Jul-22 04:33N 54°42' E 012°34'1110.8
2014-Jul-22 03:34N 54°35' E 012°19'9 8.9
2014-Jul-22 02:33N 54°27' E 012°12'1111.1
2014-Jul-22 01:33N 54°25' E 011°54'1212.1
2014-Jul-22 00:34N 54°28' E 011°34'1212.0
2014-Jul-21 23:33N 54°34' E 011°15'1211.7
2014-Jul-21 22:33N 54°40' E 010°58'9 8.8
2014-Jul-21 21:33N 54°48' E 010°51'1111.0
2014-Jul-21 20:33N 54°58' E 010°58'312.2
2014-Jul-21 20:18N 55°01' E 011°01'1211.3
2014-Jul-21 19:15N 55°12' E 011°05'5610.9
2014-Jul-21 14:05N 56°08' E 011°04'712.3
2014-Jul-21 13:33N 56°15' E 011°05'11 9.9
2014-Jul-21 12:26N 56°26' E 011°09'7 8.5
2014-Jul-21 11:33N 56°30' E 011°19'1010.1
2014-Jul-21 10:33N 56°37' E 011°33'1010.5
2014-Jul-21 09:33N 56°43' E 011°48'1210.9
2014-Jul-21 08:29N 56°55' E 011°45'1112.0
2014-Jul-21 07:33N 57°05' E 011°37'1212.1
2014-Jul-21 06:33N 57°17' E 011°29'1211.6
2014-Jul-21 05:33N 57°28' E 011°22'1211.6
2014-Jul-21 04:33N 57°36' E 011°06'1111.0
2014-Jul-21 03:33N 57°43' E 010°52'10 9.8
2014-Jul-21 02:33N 57°49' E 010°36'1211.6
2014-Jul-21 01:33N 57°47' E 010°15'1111.2
2014-Jul-21 00:33N 57°46' E 009°54'1111.2
2014-Jul-20 23:33N 57°45' E 009°33'17011.8
2014-Jul-20 09:05N 55°31' E 006°20'712.5
2014-Jul-20 08:33N 55°26' E 006°14'1212.1
2014-Jul-20 07:33N 55°15' E 006°03'1212.0
2014-Jul-20 06:33N 55°05' E 005°53'1212.0
2014-Jul-20 05:33N 54°55' E 005°42'3112.4
2014-Jul-20 03:03N 54°28' E 005°14'712.8
2014-Jul-20 02:32N 54°22' E 005°08'1312.9
2014-Jul-20 01:32N 54°11' E 004°57'1312.9
2014-Jul-20 00:33N 54°01' E 004°46'1312.8
2014-Jul-19 23:33N 53°51' E 004°31'1412.6
2014-Jul-19 22:26N 53°42' E 004°13'5912.1
2014-Jul-19 17:33N 52°53' E 003°19'2411.9
2014-Jul-19 15:32N 52°29' E 003°12'1211.6
2014-Jul-19 14:32N 52°17' E 003°12'1010.6
2014-Jul-19 13:33N 52°07' E 003°06'2210.9
2014-Jul-19 11:32N 51°51' E 002°43'1211.9
2014-Jul-19 10:33N 51°42' E 002°30'1212.4
2014-Jul-19 09:33N 51°32' E 002°18'1313.0
2014-Jul-19 08:33N 51°21' E 002°09'1313.0
2014-Jul-19 07:33N 51°11' E 001°55'1414.1
2014-Jul-19 06:33N 51°02' E 001°38'1514.8
2014-Jul-19 05:33N 50°49' E 001°25'1413.8
2014-Jul-19 04:34N 50°38' E 001°14'1414.0
2014-Jul-19 03:33N 50°29' E 000°56'1414.2
2014-Jul-19 02:34N 50°25' E 000°35'1514.7
2014-Jul-19 01:33N 50°22' E 000°12'1914.3
2014-Jul-19 00:14N 50°17' W 000°16'1014.4
2014-Jul-18 23:33N 50°14' W 000°31'1413.9
2014-Jul-18 22:34N 50°10' W 000°52'1312.6
2014-Jul-18 21:30N 50°07' W 001°12'1011.1
2014-Jul-18 20:34N 50°04' W 001°28'10 9.9
2014-Jul-18 19:32N 50°01' W 001°43'9 9.1
2014-Jul-18 18:32N 49°59' W 001°57'9 8.4
2014-Jul-18 17:31N 49°57' W 002°10'3611.4
2014-Jul-18 14:23N 49°45' W 003°02'9513.5
2014-Jul-18 07:22N 48°58' W 005°08'6312.6
2014-Jul-18 02:25N 48°09' W 006°07'46912.4
2014-Jul-16 12:33N 40°58' W 010°26'3912.2
2014-Jul-16 09:19N 40°20' W 010°40'911.9
2014-Jul-16 08:33N 40°11' W 010°43'1211.9
2014-Jul-16 07:33N 40°00' W 010°48'1312.6
2014-Jul-16 06:33N 39°48' W 010°52'1313.1
2014-Jul-16 05:33N 39°35' W 010°57'1313.2
2014-Jul-16 04:33N 39°23' W 011°02'2813.3
2014-Jul-16 02:26N 38°55' W 011°12'2513.2
2014-Jul-16 00:30N 38°31' W 011°20'1612.8
2014-Jul-15 23:15N 38°16' W 011°26'913.0
2014-Jul-15 22:33N 38°07' W 011°29'1312.9
2014-Jul-15 21:33N 37°54' W 011°34'1312.7
2014-Jul-15 20:33N 37°42' W 011°38'1312.7
2014-Jul-15 19:33N 37°30' W 011°42'1413.0
2014-Jul-15 18:30N 37°17' W 011°47'1313.1
2014-Jul-15 17:33N 37°05' W 011°52'1312.8
2014-Jul-15 16:33N 36°53' W 011°56'2512.2
2014-Jul-15 14:31N 36°29' W 012°04'23011.3
2014-Jul-14 18:13N 32°48' W 013°21'710.4
2014-Jul-14 17:33N 32°41' W 013°23'15110.7
2014-Jul-14 03:23N 30°16' W 014°12'  

Dump ship's entire track history